sensor_id;sensor_type;location;lat;lon;timestamp;temperature;humidity
4910;DHT22;2470;49.868;8.660;2022-11-22T00:00:27;8.30;99.90
4910;DHT22;2470;49.868;8.660;2022-11-22T00:02:53;8.30;99.90
4910;DHT22;2470;49.868;8.660;2022-11-22T00:05:19;8.30;99.90
4910;DHT22;2470;49.868;8.660;2022-11-22T00:07:44;8.30;99.90
4910;DHT22;2470;49.868;8.660;2022-11-22T00:10:11;8.30;99.90
4910;DHT22;2470;49.868;8.660;2022-11-22T00:12:38;8.30;99.90
4910;DHT22;2470;49.868;8.660;2022-11-22T00:15:04;8.30;99.90
4910;DHT22;2470;49.868;8.660;2022-11-22T00:17:30;8.40;99.90
4910;DHT22;2470;49.868;8.660;2022-11-22T00:19:56;8.40;99.90
4910;DHT22;2470;49.868;8.660;2022-11-22T00:22:22;8.40;99.90
4910;DHT22;2470;49.868;8.660;2022-11-22T00:24:48;8.40;99.90
4910;DHT22;2470;49.868;8.660;2022-11-22T00:27:15;8.40;99.90
4910;DHT22;2470;49.868;8.660;2022-11-22T00:29:41;8.40;99.90
4910;DHT22;2470;49.868;8.660;2022-11-22T00:32:06;8.40;99.90
4910;DHT22;2470;49.868;8.660;2022-11-22T00:34:32;8.40;99.90
4910;DHT22;2470;49.868;8.660;2022-11-22T00:36:57;8.30;99.90
4910;DHT22;2470;49.868;8.660;2022-11-22T00:39:23;8.30;99.90
4910;DHT22;2470;49.868;8.660;2022-11-22T00:41:48;8.40;99.90
4910;DHT22;2470;49.868;8.660;2022-11-22T00:44:14;8.30;99.90
4910;DHT22;2470;49.868;8.660;2022-11-22T00:46:39;8.30;99.90
4910;DHT22;2470;49.868;8.660;2022-11-22T00:49:05;8.30;99.90
4910;DHT22;2470;49.868;8.660;2022-11-22T00:51:30;8.30;99.90
4910;DHT22;2470;49.868;8.660;2022-11-22T00:53:56;8.30;99.90
4910;DHT22;2470;49.868;8.660;2022-11-22T00:56:21;8.30;99.90
4910;DHT22;2470;49.868;8.660;2022-11-22T00:58:47;8.20;99.90
4910;DHT22;2470;49.868;8.660;2022-11-22T01:01:12;8.00;99.90
4910;DHT22;2470;49.868;8.660;2022-11-22T01:03:38;8.20;99.90
4910;DHT22;2470;49.868;8.660;2022-11-22T01:06:03;8.20;99.90
4910;DHT22;2470;49.868;8.660;2022-11-22T01:08:29;8.20;99.90
4910;DHT22;2470;49.868;8.660;2022-11-22T01:10:58;8.10;99.90
4910;DHT22;2470;49.868;8.660;2022-11-22T01:13:25;8.10;99.90
4910;DHT22;2470;49.868;8.660;2022-11-22T01:15:51;8.10;99.90
4910;DHT22;2470;49.868;8.660;2022-11-22T01:18:16;8.10;99.90
4910;DHT22;2470;49.868;8.660;2022-11-22T01:20:42;8.20;99.90
4910;DHT22;2470;49.868;8.660;2022-11-22T01:23:07;8.20;99.90
4910;DHT22;2470;49.868;8.660;2022-11-22T01:25:33;8.10;99.90
4910;DHT22;2470;49.868;8.660;2022-11-22T01:27:58;8.10;99.90
4910;DHT22;2470;49.868;8.660;2022-11-22T01:30:24;8.20;99.90
4910;DHT22;2470;49.868;8.660;2022-11-22T01:32:49;8.20;99.90
4910;DHT22;2470;49.868;8.660;2022-11-22T01:35:15;8.20;99.90
4910;DHT22;2470;49.868;8.660;2022-11-22T01:37:40;8.20;99.90
4910;DHT22;2470;49.868;8.660;2022-11-22T01:40:06;8.20;99.90
4910;DHT22;2470;49.868;8.660;2022-11-22T01:42:41;8.20;99.90
4910;DHT22;2470;49.868;8.660;2022-11-22T01:45:36;8.20;99.90
4910;DHT22;2470;49.868;8.660;2022-11-22T01:50:33;8.20;99.90
4910;DHT22;2470;49.868;8.660;2022-11-22T01:53:06;8.20;99.90
4910;DHT22;2470;49.868;8.660;2022-11-22T01:55:34;8.20;99.90
4910;DHT22;2470;49.868;8.660;2022-11-22T01:58:00;8.20;99.90
4910;DHT22;2470;49.868;8.660;2022-11-22T02:00:26;8.20;99.90
4910;DHT22;2470;49.868;8.660;2022-11-22T02:02:58;8.20;99.90
4910;DHT22;2470;49.868;8.660;2022-11-22T02:05:29;8.20;99.90
4910;DHT22;2470;49.868;8.660;2022-11-22T02:08:04;8.20;99.90
4910;DHT22;2470;49.868;8.660;2022-11-22T02:10:34;8.10;99.90
4910;DHT22;2470;49.868;8.660;2022-11-22T02:13:02;8.10;99.90
4910;DHT22;2470;49.868;8.660;2022-11-22T02:15:28;8.10;99.90
4910;DHT22;2470;49.868;8.660;2022-11-22T02:17:57;8.10;99.90
4910;DHT22;2470;49.868;8.660;2022-11-22T02:20:23;8.10;99.90
4910;DHT22;2470;49.868;8.660;2022-11-22T02:28:07;8.10;99.90
4910;DHT22;2470;49.868;8.660;2022-11-22T02:30:35;8.10;99.90
4910;DHT22;2470;49.868;8.660;2022-11-22T02:33:01;8.10;99.90
4910;DHT22;2470;49.868;8.660;2022-11-22T02:35:27;8.10;99.90
4910;DHT22;2470;49.868;8.660;2022-11-22T02:40:58;8.10;99.90
4910;DHT22;2470;49.868;8.660;2022-11-22T02:43:30;8.00;99.90
4910;DHT22;2470;49.868;8.660;2022-11-22T02:46:03;8.00;99.90
4910;DHT22;2470;49.868;8.660;2022-11-22T02:48:29;8.00;99.90
4910;DHT22;2470;49.868;8.660;2022-11-22T02:50:54;8.00;99.90
4910;DHT22;2470;49.868;8.660;2022-11-22T02:53:20;8.00;99.90
4910;DHT22;2470;49.868;8.660;2022-11-22T02:55:45;8.10;99.90
4910;DHT22;2470;49.868;8.660;2022-11-22T02:58:11;8.10;99.90
4910;DHT22;2470;49.868;8.660;2022-11-22T03:00:37;8.10;99.90
4910;DHT22;2470;49.868;8.660;2022-11-22T03:03:03;8.10;99.90
4910;DHT22;2470;49.868;8.660;2022-11-22T03:05:29;8.10;99.90
4910;DHT22;2470;49.868;8.660;2022-11-22T03:07:55;8.10;99.90
4910;DHT22;2470;49.868;8.660;2022-11-22T03:10:20;8.10;99.90
4910;DHT22;2470;49.868;8.660;2022-11-22T03:12:46;8.10;99.90
4910;DHT22;2470;49.868;8.660;2022-11-22T03:15:11;8.10;99.90
4910;DHT22;2470;49.868;8.660;2022-11-22T03:17:37;8.10;99.90
4910;DHT22;2470;49.868;8.660;2022-11-22T03:20:03;8.10;99.90
4910;DHT22;2470;49.868;8.660;2022-11-22T03:22:29;8.00;99.90
4910;DHT22;2470;49.868;8.660;2022-11-22T03:24:55;8.00;99.90
4910;DHT22;2470;49.868;8.660;2022-11-22T03:27:20;8.00;99.90
4910;DHT22;2470;49.868;8.660;2022-11-22T03:29:46;8.00;99.90
4910;DHT22;2470;49.868;8.660;2022-11-22T03:32:11;8.00;99.90
4910;DHT22;2470;49.868;8.660;2022-11-22T03:34:37;8.00;99.90
4910;DHT22;2470;49.868;8.660;2022-11-22T03:37:03;8.00;99.90
4910;DHT22;2470;49.868;8.660;2022-11-22T03:39:28;8.00;99.90
4910;DHT22;2470;49.868;8.660;2022-11-22T03:41:54;8.00;99.90
4910;DHT22;2470;49.868;8.660;2022-11-22T03:44:21;8.00;99.90
4910;DHT22;2470;49.868;8.660;2022-11-22T03:46:46;8.10;99.90
4910;DHT22;2470;49.868;8.660;2022-11-22T03:49:12;8.10;99.90
4910;DHT22;2470;49.868;8.660;2022-11-22T03:51:38;8.10;99.90
4910;DHT22;2470;49.868;8.660;2022-11-22T03:54:03;8.10;99.90
4910;DHT22;2470;49.868;8.660;2022-11-22T03:56:29;8.10;99.90
4910;DHT22;2470;49.868;8.660;2022-11-22T03:58:54;8.10;99.90
4910;DHT22;2470;49.868;8.660;2022-11-22T04:01:20;8.10;99.90
4910;DHT22;2470;49.868;8.660;2022-11-22T04:03:45;8.10;99.90
4910;DHT22;2470;49.868;8.660;2022-11-22T04:06:11;8.10;99.90
4910;DHT22;2470;49.868;8.660;2022-11-22T04:08:36;8.10;99.90
4910;DHT22;2470;49.868;8.660;2022-11-22T04:11:02;8.10;99.90
4910;DHT22;2470;49.868;8.660;2022-11-22T04:13:27;8.10;99.90
4910;DHT22;2470;49.868;8.660;2022-11-22T04:16:13;8.00;99.90
4910;DHT22;2470;49.868;8.660;2022-11-22T04:18:38;8.00;99.90
4910;DHT22;2470;49.868;8.660;2022-11-22T04:21:04;8.00;99.90
4910;DHT22;2470;49.868;8.660;2022-11-22T04:23:48;7.90;99.90
4910;DHT22;2470;49.868;8.660;2022-11-22T04:26:33;7.90;99.90
4910;DHT22;2470;49.868;8.660;2022-11-22T04:28:59;7.90;99.90
4910;DHT22;2470;49.868;8.660;2022-11-22T04:31:24;7.90;99.90
4910;DHT22;2470;49.868;8.660;2022-11-22T04:34:08;7.90;99.90
4910;DHT22;2470;49.868;8.660;2022-11-22T04:36:34;7.90;99.90
4910;DHT22;2470;49.868;8.660;2022-11-22T04:38:59;7.90;99.90
4910;DHT22;2470;49.868;8.660;2022-11-22T04:41:25;7.80;99.90
4910;DHT22;2470;49.868;8.660;2022-11-22T04:43:50;7.90;99.90
4910;DHT22;2470;49.868;8.660;2022-11-22T04:46:34;7.80;99.90
4910;DHT22;2470;49.868;8.660;2022-11-22T04:49:00;7.90;99.90
4910;DHT22;2470;49.868;8.660;2022-11-22T04:51:25;7.90;99.90
4910;DHT22;2470;49.868;8.660;2022-11-22T04:54:10;7.80;99.90
4910;DHT22;2470;49.868;8.660;2022-11-22T04:56:35;7.80;99.90
4910;DHT22;2470;49.868;8.660;2022-11-22T04:59:01;7.90;99.90
4910;DHT22;2470;49.868;8.660;2022-11-22T05:01:26;7.80;99.90
4910;DHT22;2470;49.868;8.660;2022-11-22T05:03:55;7.80;99.90
4910;DHT22;2470;49.868;8.660;2022-11-22T05:06:33;7.80;99.90
4910;DHT22;2470;49.868;8.660;2022-11-22T05:08:58;7.80;99.90
4910;DHT22;2470;49.868;8.660;2022-11-22T05:11:24;7.80;99.90
4910;DHT22;2470;49.868;8.660;2022-11-22T05:13:49;7.80;99.90
4910;DHT22;2470;49.868;8.660;2022-11-22T05:16:15;7.70;99.90
4910;DHT22;2470;49.868;8.660;2022-11-22T05:18:41;7.80;99.90
4910;DHT22;2470;49.868;8.660;2022-11-22T05:21:11;7.80;99.90
4910;DHT22;2470;49.868;8.660;2022-11-22T05:23:37;7.80;99.90
4910;DHT22;2470;49.868;8.660;2022-11-22T05:26:22;7.80;99.90
4910;DHT22;2470;49.868;8.660;2022-11-22T05:28:48;7.80;99.90
4910;DHT22;2470;49.868;8.660;2022-11-22T05:31:20;7.70;99.90
4910;DHT22;2470;49.868;8.660;2022-11-22T05:33:48;7.70;99.90
4910;DHT22;2470;49.868;8.660;2022-11-22T05:36:14;7.70;99.90
4910;DHT22;2470;49.868;8.660;2022-11-22T05:38:40;7.70;99.90
4910;DHT22;2470;49.868;8.660;2022-11-22T05:41:08;7.70;99.90
4910;DHT22;2470;49.868;8.660;2022-11-22T05:43:35;7.70;99.90
4910;DHT22;2470;49.868;8.660;2022-11-22T05:46:20;7.70;99.90
4910;DHT22;2470;49.868;8.660;2022-11-22T05:48:47;7.60;99.90
4910;DHT22;2470;49.868;8.660;2022-11-22T05:51:14;7.70;99.90
4910;DHT22;2470;49.868;8.660;2022-11-22T05:53:41;7.60;99.90
4910;DHT22;2470;49.868;8.660;2022-11-22T05:56:20;7.60;99.90
4910;DHT22;2470;49.868;8.660;2022-11-22T05:58:47;7.60;99.90
4910;DHT22;2470;49.868;8.660;2022-11-22T06:01:18;7.60;99.90
4910;DHT22;2470;49.868;8.660;2022-11-22T06:03:44;7.60;99.90
4910;DHT22;2470;49.868;8.660;2022-11-22T06:06:10;7.60;99.90
4910;DHT22;2470;49.868;8.660;2022-11-22T06:08:37;7.60;99.90
4910;DHT22;2470;49.868;8.660;2022-11-22T06:11:05;7.60;99.90
4910;DHT22;2470;49.868;8.660;2022-11-22T06:13:35;7.60;99.90
4910;DHT22;2470;49.868;8.660;2022-11-22T06:16:02;7.70;99.90
4910;DHT22;2470;49.868;8.660;2022-11-22T06:18:28;7.70;99.90
4910;DHT22;2470;49.868;8.660;2022-11-22T06:20:58;7.80;99.90
4910;DHT22;2470;49.868;8.660;2022-11-22T06:23:24;7.80;99.90
4910;DHT22;2470;49.868;8.660;2022-11-22T06:25:57;7.80;99.90
4910;DHT22;2470;49.868;8.660;2022-11-22T06:28:24;7.80;99.90
4910;DHT22;2470;49.868;8.660;2022-11-22T06:30:50;7.90;99.90
4910;DHT22;2470;49.868;8.660;2022-11-22T06:33:15;7.90;99.90
4910;DHT22;2470;49.868;8.660;2022-11-22T06:35:41;7.80;99.90
4910;DHT22;2470;49.868;8.660;2022-11-22T06:38:06;7.80;99.90
4910;DHT22;2470;49.868;8.660;2022-11-22T06:40:32;7.80;99.90
4910;DHT22;2470;49.868;8.660;2022-11-22T06:42:57;7.80;99.90
4910;DHT22;2470;49.868;8.660;2022-11-22T06:45:22;7.90;99.90
4910;DHT22;2470;49.868;8.660;2022-11-22T06:47:48;7.90;99.90
4910;DHT22;2470;49.868;8.660;2022-11-22T06:50:14;7.90;99.90
4910;DHT22;2470;49.868;8.660;2022-11-22T06:52:39;7.90;99.90
4910;DHT22;2470;49.868;8.660;2022-11-22T06:55:05;7.90;99.90
4910;DHT22;2470;49.868;8.660;2022-11-22T06:57:31;7.80;99.90
4910;DHT22;2470;49.868;8.660;2022-11-22T06:59:56;7.80;99.90
4910;DHT22;2470;49.868;8.660;2022-11-22T07:02:22;7.80;99.90
4910;DHT22;2470;49.868;8.660;2022-11-22T07:04:48;7.80;99.90
4910;DHT22;2470;49.868;8.660;2022-11-22T07:07:13;7.80;99.90
4910;DHT22;2470;49.868;8.660;2022-11-22T07:09:39;7.80;99.90
4910;DHT22;2470;49.868;8.660;2022-11-22T07:12:04;7.70;99.90
4910;DHT22;2470;49.868;8.660;2022-11-22T07:14:30;7.80;99.90
4910;DHT22;2470;49.868;8.660;2022-11-22T07:16:55;7.80;99.90
4910;DHT22;2470;49.868;8.660;2022-11-22T07:19:21;7.80;99.90
4910;DHT22;2470;49.868;8.660;2022-11-22T07:21:47;7.70;99.90
4910;DHT22;2470;49.868;8.660;2022-11-22T07:24:14;7.70;99.90
4910;DHT22;2470;49.868;8.660;2022-11-22T07:26:40;7.70;99.90
4910;DHT22;2470;49.868;8.660;2022-11-22T07:29:05;7.70;99.90
4910;DHT22;2470;49.868;8.660;2022-11-22T07:31:31;7.70;99.90
4910;DHT22;2470;49.868;8.660;2022-11-22T07:33:56;7.70;99.90
4910;DHT22;2470;49.868;8.660;2022-11-22T07:36:23;7.70;99.90
4910;DHT22;2470;49.868;8.660;2022-11-22T07:38:49;7.70;99.90
4910;DHT22;2470;49.868;8.660;2022-11-22T07:41:16;7.70;99.90
4910;DHT22;2470;49.868;8.660;2022-11-22T07:43:42;7.80;99.90
4910;DHT22;2470;49.868;8.660;2022-11-22T07:46:27;7.80;99.90
4910;DHT22;2470;49.868;8.660;2022-11-22T07:48:57;7.80;99.90
4910;DHT22;2470;49.868;8.660;2022-11-22T07:51:24;7.80;99.90
4910;DHT22;2470;49.868;8.660;2022-11-22T07:53:50;7.80;99.90
4910;DHT22;2470;49.868;8.660;2022-11-22T07:56:15;7.90;99.90
4910;DHT22;2470;49.868;8.660;2022-11-22T07:58:41;7.90;99.90
4910;DHT22;2470;49.868;8.660;2022-11-22T08:01:08;7.90;99.90
4910;DHT22;2470;49.868;8.660;2022-11-22T08:03:35;7.90;99.90
4910;DHT22;2470;49.868;8.660;2022-11-22T08:06:03;7.90;99.90
4910;DHT22;2470;49.868;8.660;2022-11-22T08:08:29;7.90;99.90
4910;DHT22;2470;49.868;8.660;2022-11-22T08:10:54;8.00;99.90
4910;DHT22;2470;49.868;8.660;2022-11-22T08:13:20;8.00;99.90
4910;DHT22;2470;49.868;8.660;2022-11-22T08:15:46;8.00;99.90
4910;DHT22;2470;49.868;8.660;2022-11-22T08:18:13;8.00;99.90
4910;DHT22;2470;49.868;8.660;2022-11-22T08:20:38;8.00;99.90
4910;DHT22;2470;49.868;8.660;2022-11-22T08:23:03;8.00;99.90
4910;DHT22;2470;49.868;8.660;2022-11-22T08:25:29;8.10;99.90
4910;DHT22;2470;49.868;8.660;2022-11-22T08:27:55;8.10;99.90
4910;DHT22;2470;49.868;8.660;2022-11-22T08:30:20;8.10;99.90
4910;DHT22;2470;49.868;8.660;2022-11-22T08:32:46;8.10;99.90
4910;DHT22;2470;49.868;8.660;2022-11-22T08:35:12;8.10;99.90
4910;DHT22;2470;49.868;8.660;2022-11-22T08:37:37;8.20;99.90
4910;DHT22;2470;49.868;8.660;2022-11-22T08:40:03;8.30;99.90
4910;DHT22;2470;49.868;8.660;2022-11-22T08:42:29;8.30;99.90
4910;DHT22;2470;49.868;8.660;2022-11-22T08:44:55;8.30;99.90
4910;DHT22;2470;49.868;8.660;2022-11-22T08:47:20;8.40;99.90
4910;DHT22;2470;49.868;8.660;2022-11-22T08:49:46;8.40;99.90
4910;DHT22;2470;49.868;8.660;2022-11-22T08:52:12;8.40;99.90
4910;DHT22;2470;49.868;8.660;2022-11-22T08:54:37;8.50;99.90
4910;DHT22;2470;49.868;8.660;2022-11-22T08:57:03;8.60;99.90
4910;DHT22;2470;49.868;8.660;2022-11-22T08:59:29;8.60;99.90
4910;DHT22;2470;49.868;8.660;2022-11-22T09:01:54;8.50;99.90
4910;DHT22;2470;49.868;8.660;2022-11-22T09:04:20;8.50;99.90
4910;DHT22;2470;49.868;8.660;2022-11-22T09:06:45;8.60;99.90
4910;DHT22;2470;49.868;8.660;2022-11-22T09:09:11;8.60;99.90
4910;DHT22;2470;49.868;8.660;2022-11-22T09:11:36;8.50;99.90
4910;DHT22;2470;49.868;8.660;2022-11-22T09:14:02;8.50;99.90
4910;DHT22;2470;49.868;8.660;2022-11-22T09:16:27;8.60;99.90
4910;DHT22;2470;49.868;8.660;2022-11-22T09:18:56;8.60;99.90
4910;DHT22;2470;49.868;8.660;2022-11-22T09:21:21;8.70;99.90
4910;DHT22;2470;49.868;8.660;2022-11-22T09:23:49;8.80;99.90
4910;DHT22;2470;49.868;8.660;2022-11-22T09:26:17;8.80;99.90
4910;DHT22;2470;49.868;8.660;2022-11-22T09:28:43;8.90;99.90
4910;DHT22;2470;49.868;8.660;2022-11-22T09:31:14;8.90;99.90
4910;DHT22;2470;49.868;8.660;2022-11-22T09:33:41;8.90;99.90
4910;DHT22;2470;49.868;8.660;2022-11-22T09:36:35;8.90;99.90
4910;DHT22;2470;49.868;8.660;2022-11-22T09:39:01;8.80;99.90
4910;DHT22;2470;49.868;8.660;2022-11-22T09:52:22;9.20;99.90
4910;DHT22;2470;49.868;8.660;2022-11-22T09:55:19;9.20;99.90
4910;DHT22;2470;49.868;8.660;2022-11-22T09:57:49;9.20;99.90
4910;DHT22;2470;49.868;8.660;2022-11-22T10:00:22;9.30;99.90
4910;DHT22;2470;49.868;8.660;2022-11-22T10:02:58;9.20;99.90
4910;DHT22;2470;49.868;8.660;2022-11-22T10:05:31;9.10;99.90
4910;DHT22;2470;49.868;8.660;2022-11-22T10:08:19;9.10;99.90
4910;DHT22;2470;49.868;8.660;2022-11-22T10:10:50;9.00;99.90
4910;DHT22;2470;49.868;8.660;2022-11-22T10:13:41;9.00;99.90
4910;DHT22;2470;49.868;8.660;2022-11-22T10:19:16;9.10;99.90
4910;DHT22;2470;49.868;8.660;2022-11-22T10:21:44;9.20;99.90
4910;DHT22;2470;49.868;8.660;2022-11-22T10:24:14;9.10;99.90
4910;DHT22;2470;49.868;8.660;2022-11-22T10:26:40;9.20;99.90
4910;DHT22;2470;49.868;8.660;2022-11-22T10:29:40;9.20;99.90
4910;DHT22;2470;49.868;8.660;2022-11-22T10:32:35;9.30;99.90
4910;DHT22;2470;49.868;8.660;2022-11-22T10:35:09;9.30;99.90
4910;DHT22;2470;49.868;8.660;2022-11-22T10:40:29;9.30;99.90
4910;DHT22;2470;49.868;8.660;2022-11-22T10:48:13;9.30;99.90
4910;DHT22;2470;49.868;8.660;2022-11-22T10:50:52;9.40;99.90
4910;DHT22;2470;49.868;8.660;2022-11-22T11:04:09;9.50;99.90
4910;DHT22;2470;49.868;8.660;2022-11-22T11:06:55;9.60;99.90
4910;DHT22;2470;49.868;8.660;2022-11-22T11:09:35;9.60;99.90
4910;DHT22;2470;49.868;8.660;2022-11-22T11:12:10;9.70;99.90
4910;DHT22;2470;49.868;8.660;2022-11-22T11:14:40;9.70;99.90
4910;DHT22;2470;49.868;8.660;2022-11-22T11:17:16;9.70;99.90
4910;DHT22;2470;49.868;8.660;2022-11-22T11:19:43;9.80;99.90
4910;DHT22;2470;49.868;8.660;2022-11-22T11:22:20;9.90;99.90
4910;DHT22;2470;49.868;8.660;2022-11-22T11:24:47;9.90;99.90
4910;DHT22;2470;49.868;8.660;2022-11-22T11:27:15;10.10;99.90
4910;DHT22;2470;49.868;8.660;2022-11-22T11:29:52;10.20;99.90
4910;DHT22;2470;49.868;8.660;2022-11-22T11:32:22;10.30;99.90
4910;DHT22;2470;49.868;8.660;2022-11-22T11:34:58;10.40;99.90
4910;DHT22;2470;49.868;8.660;2022-11-22T11:37:37;10.50;99.90
4910;DHT22;2470;49.868;8.660;2022-11-22T11:40:04;10.60;99.90
4910;DHT22;2470;49.868;8.660;2022-11-22T11:42:32;10.60;99.90
4910;DHT22;2470;49.868;8.660;2022-11-22T11:45:25;10.70;99.90
4910;DHT22;2470;49.868;8.660;2022-11-22T11:47:52;10.70;99.90
4910;DHT22;2470;49.868;8.660;2022-11-22T11:50:22;10.80;99.90
4910;DHT22;2470;49.868;8.660;2022-11-22T11:52:54;10.80;99.90
4910;DHT22;2470;49.868;8.660;2022-11-22T11:55:20;10.80;99.90
4910;DHT22;2470;49.868;8.660;2022-11-22T11:57:45;10.80;99.90
4910;DHT22;2470;49.868;8.660;2022-11-22T12:00:24;10.80;99.90
4910;DHT22;2470;49.868;8.660;2022-11-22T12:02:58;10.70;99.90
4910;DHT22;2470;49.868;8.660;2022-11-22T12:05:30;10.70;99.90
4910;DHT22;2470;49.868;8.660;2022-11-22T12:07:56;10.80;99.90
4910;DHT22;2470;49.868;8.660;2022-11-22T12:10:39;10.80;99.90
4910;DHT22;2470;49.868;8.660;2022-11-22T12:18:51;11.00;99.90
4910;DHT22;2470;49.868;8.660;2022-11-22T12:21:42;11.10;99.90
4910;DHT22;2470;49.868;8.660;2022-11-22T12:24:18;11.10;99.90
4910;DHT22;2470;49.868;8.660;2022-11-22T12:26:45;11.10;99.90
4910;DHT22;2470;49.868;8.660;2022-11-22T12:29:12;11.10;99.90
4910;DHT22;2470;49.868;8.660;2022-11-22T12:31:43;11.10;99.90
4910;DHT22;2470;49.868;8.660;2022-11-22T12:34:27;11.30;99.90
4910;DHT22;2470;49.868;8.660;2022-11-22T12:37:04;11.30;99.90
4910;DHT22;2470;49.868;8.660;2022-11-22T12:39:33;11.30;99.90
4910;DHT22;2470;49.868;8.660;2022-11-22T12:42:12;11.30;99.90
4910;DHT22;2470;49.868;8.660;2022-11-22T12:44:45;11.40;99.90
4910;DHT22;2470;49.868;8.660;2022-11-22T12:47:16;11.30;99.90
4910;DHT22;2470;49.868;8.660;2022-11-22T12:49:46;11.20;99.90
4910;DHT22;2470;49.868;8.660;2022-11-22T12:55:14;11.10;99.90
4910;DHT22;2470;49.868;8.660;2022-11-22T12:58:08;11.10;99.90
4910;DHT22;2470;49.868;8.660;2022-11-22T13:00:43;11.00;99.90
4910;DHT22;2470;49.868;8.660;2022-11-22T13:03:14;10.90;99.90
4910;DHT22;2470;49.868;8.660;2022-11-22T13:05:55;10.80;99.90
4910;DHT22;2470;49.868;8.660;2022-11-22T13:11:22;10.90;99.90
4910;DHT22;2470;49.868;8.660;2022-11-22T13:13:53;10.80;99.90
4910;DHT22;2470;49.868;8.660;2022-11-22T13:16:21;10.80;99.90
4910;DHT22;2470;49.868;8.660;2022-11-22T13:18:54;10.70;99.90
4910;DHT22;2470;49.868;8.660;2022-11-22T13:24:27;10.60;99.90
4910;DHT22;2470;49.868;8.660;2022-11-22T13:27:02;10.60;99.90
4910;DHT22;2470;49.868;8.660;2022-11-22T13:29:34;10.60;99.90
4910;DHT22;2470;49.868;8.660;2022-11-22T13:32:06;10.60;99.90
4910;DHT22;2470;49.868;8.660;2022-11-22T13:37:26;10.50;99.90
4910;DHT22;2470;49.868;8.660;2022-11-22T13:39:52;10.50;99.90
4910;DHT22;2470;49.868;8.660;2022-11-22T13:42:21;10.50;99.90
4910;DHT22;2470;49.868;8.660;2022-11-22T13:47:37;10.20;99.90
4910;DHT22;2470;49.868;8.660;2022-11-22T13:55:44;10.20;99.90
4910;DHT22;2470;49.868;8.660;2022-11-22T14:00:51;10.00;99.90
4910;DHT22;2470;49.868;8.660;2022-11-22T14:03:26;9.90;99.90
4910;DHT22;2470;49.868;8.660;2022-11-22T14:05:54;10.00;99.90
4910;DHT22;2470;49.868;8.660;2022-11-22T14:08:37;9.90;99.90
4910;DHT22;2470;49.868;8.660;2022-11-22T14:11:24;9.80;99.90
4910;DHT22;2470;49.868;8.660;2022-11-22T14:13:59;9.80;99.90
4910;DHT22;2470;49.868;8.660;2022-11-22T14:21:47;9.80;99.90
4910;DHT22;2470;49.868;8.660;2022-11-22T14:24:33;9.70;99.90
4910;DHT22;2470;49.868;8.660;2022-11-22T14:28:00;9.70;99.90
4910;DHT22;2470;49.868;8.660;2022-11-22T14:30:20;9.70;99.90
4910;DHT22;2470;49.868;8.660;2022-11-22T14:35:36;9.60;99.90
4910;DHT22;2470;49.868;8.660;2022-11-22T14:38:25;9.60;99.90
4910;DHT22;2470;49.868;8.660;2022-11-22T14:40:51;9.50;99.90
4910;DHT22;2470;49.868;8.660;2022-11-22T14:43:40;9.50;99.90
4910;DHT22;2470;49.868;8.660;2022-11-22T14:46:16;9.50;99.90
4910;DHT22;2470;49.868;8.660;2022-11-22T14:48:50;9.50;99.90
4910;DHT22;2470;49.868;8.660;2022-11-22T14:51:24;9.50;99.90
4910;DHT22;2470;49.868;8.660;2022-11-22T14:54:00;9.40;99.90
4910;DHT22;2470;49.868;8.660;2022-11-22T14:56:32;9.40;99.90
4910;DHT22;2470;49.868;8.660;2022-11-22T15:10:27;9.20;99.90
4910;DHT22;2470;49.868;8.660;2022-11-22T15:15:53;9.20;99.90
4910;DHT22;2470;49.868;8.660;2022-11-22T15:20:45;9.10;99.90
4910;DHT22;2470;49.868;8.660;2022-11-22T15:23:23;9.10;99.90
4910;DHT22;2470;49.868;8.660;2022-11-22T15:26:02;9.10;99.90
4910;DHT22;2470;49.868;8.660;2022-11-22T15:28:27;9.10;99.90
4910;DHT22;2470;49.868;8.660;2022-11-22T15:30:57;9.10;99.90
4910;DHT22;2470;49.868;8.660;2022-11-22T15:33:33;9.10;99.90
4910;DHT22;2470;49.868;8.660;2022-11-22T15:38:57;9.10;99.90
4910;DHT22;2470;49.868;8.660;2022-11-22T15:41:26;9.00;99.90
4910;DHT22;2470;49.868;8.660;2022-11-22T15:43:52;9.00;99.90
4910;DHT22;2470;49.868;8.660;2022-11-22T15:46:20;9.00;99.90
4910;DHT22;2470;49.868;8.660;2022-11-22T15:48:49;9.00;99.90
4910;DHT22;2470;49.868;8.660;2022-11-22T15:59:29;9.00;99.90
4910;DHT22;2470;49.868;8.660;2022-11-22T16:01:59;8.90;99.90
4910;DHT22;2470;49.868;8.660;2022-11-22T16:04:28;8.90;99.90
4910;DHT22;2470;49.868;8.660;2022-11-22T16:06:56;9.00;99.90
4910;DHT22;2470;49.868;8.660;2022-11-22T16:09:28;8.90;99.90
4910;DHT22;2470;49.868;8.660;2022-11-22T16:11:55;8.90;99.90
4910;DHT22;2470;49.868;8.660;2022-11-22T16:14:44;8.90;99.90
4910;DHT22;2470;49.868;8.660;2022-11-22T16:17:36;8.90;99.90
4910;DHT22;2470;49.868;8.660;2022-11-22T16:23:44;8.90;99.90
4910;DHT22;2470;49.868;8.660;2022-11-22T16:25:53;8.90;99.90
4910;DHT22;2470;49.868;8.660;2022-11-22T16:28:25;8.90;99.90
4910;DHT22;2470;49.868;8.660;2022-11-22T16:30:56;8.90;99.90
4910;DHT22;2470;49.868;8.660;2022-11-22T16:33:23;8.90;99.90
4910;DHT22;2470;49.868;8.660;2022-11-22T16:35:53;8.90;99.90
4910;DHT22;2470;49.868;8.660;2022-11-22T16:38:20;8.80;99.90
4910;DHT22;2470;49.868;8.660;2022-11-22T16:40:45;8.90;99.90
4910;DHT22;2470;49.868;8.660;2022-11-22T16:43:21;8.80;99.90
4910;DHT22;2470;49.868;8.660;2022-11-22T16:45:48;8.80;99.90
4910;DHT22;2470;49.868;8.660;2022-11-22T16:48:23;8.80;99.90
4910;DHT22;2470;49.868;8.660;2022-11-22T16:50:55;8.70;99.90
4910;DHT22;2470;49.868;8.660;2022-11-22T16:53:21;8.80;99.90
4910;DHT22;2470;49.868;8.660;2022-11-22T16:55:47;8.70;99.90
4910;DHT22;2470;49.868;8.660;2022-11-22T16:58:16;8.70;99.90
4910;DHT22;2470;49.868;8.660;2022-11-22T17:00:42;8.70;99.90
4910;DHT22;2470;49.868;8.660;2022-11-22T17:03:22;8.70;99.90
4910;DHT22;2470;49.868;8.660;2022-11-22T17:05:49;8.70;99.90
4910;DHT22;2470;49.868;8.660;2022-11-22T17:08:17;8.70;99.90
4910;DHT22;2470;49.868;8.660;2022-11-22T17:10:45;8.70;99.90
4910;DHT22;2470;49.868;8.660;2022-11-22T17:13:24;8.70;99.90
4910;DHT22;2470;49.868;8.660;2022-11-22T17:15:51;8.60;99.90
4910;DHT22;2470;49.868;8.660;2022-11-22T17:18:17;8.60;99.90
4910;DHT22;2470;49.868;8.660;2022-11-22T17:20:43;8.60;99.90
4910;DHT22;2470;49.868;8.660;2022-11-22T17:23:13;8.60;99.90
4910;DHT22;2470;49.868;8.660;2022-11-22T17:25:40;8.60;99.90
4910;DHT22;2470;49.868;8.660;2022-11-22T17:28:05;8.60;99.90
4910;DHT22;2470;49.868;8.660;2022-11-22T17:30:31;8.60;99.90
4910;DHT22;2470;49.868;8.660;2022-11-22T17:32:56;8.60;99.90
4910;DHT22;2470;49.868;8.660;2022-11-22T17:35:22;8.60;99.90
4910;DHT22;2470;49.868;8.660;2022-11-22T17:37:52;8.60;99.90
4910;DHT22;2470;49.868;8.660;2022-11-22T17:40:17;8.60;99.90
4910;DHT22;2470;49.868;8.660;2022-11-22T17:42:43;8.60;99.90
4910;DHT22;2470;49.868;8.660;2022-11-22T17:45:08;8.60;99.90
4910;DHT22;2470;49.868;8.660;2022-11-22T17:47:34;8.60;99.90
4910;DHT22;2470;49.868;8.660;2022-11-22T17:50:00;8.60;99.90
4910;DHT22;2470;49.868;8.660;2022-11-22T17:52:25;8.60;99.90
4910;DHT22;2470;49.868;8.660;2022-11-22T17:54:51;8.60;99.90
4910;DHT22;2470;49.868;8.660;2022-11-22T17:57:17;8.70;99.90
4910;DHT22;2470;49.868;8.660;2022-11-22T17:59:42;8.60;99.90
4910;DHT22;2470;49.868;8.660;2022-11-22T18:02:14;8.70;99.90
4910;DHT22;2470;49.868;8.660;2022-11-22T18:04:40;8.60;99.90
4910;DHT22;2470;49.868;8.660;2022-11-22T18:07:06;8.60;99.90
4910;DHT22;2470;49.868;8.660;2022-11-22T18:09:32;8.60;99.90
4910;DHT22;2470;49.868;8.660;2022-11-22T18:11:58;8.60;99.90
4910;DHT22;2470;49.868;8.660;2022-11-22T18:14:24;8.60;99.90
4910;DHT22;2470;49.868;8.660;2022-11-22T18:16:50;8.60;99.90
4910;DHT22;2470;49.868;8.660;2022-11-22T18:19:15;8.60;99.90